Capitol Logistics 797


KMIA
Miami International Airport
Miami, Florida, US
SCEL
Arturo Merino Benitez International Airport
Santiago, , CL

Route Details

Aircraft Information
Primary: Boeing 747-400BCF
Backup: Boeing 777-200LRF
Route Data
Distance: 3625nm
Sched. Duration: 7h 29m
Avg. Duration: 8h 80m (+151m)
Times Flown: 2
Recm'd Route: EONNS2 EONNS A509 URSUS UA301 UCA UG430 SIA UB510 COLBY UM795 ILTUR UM795 BOKAN UM795 LOBOT UM795 KUSKU UM795 PUPMI UM795 JCL UL302 TOY UV208 SIMOK SIMOK2C
Planned Altitude: 31,000ft
Origin Wx: KMIA 311153Z 00000KT 10SM SCT022 BKN035 OVC250 27/23 A3002 RMK AO2 SLP165 T02720233 10272 20256 53018
Dest. Wx: SCEL 311200Z VRB01KT 2000 BR BKN070 09/07 Q1019 BECMG 3000 BR
Notes:

Financial History
Total Freight: 190,201lbs
Average Load: 95,101lbs/flt
Fuel Used: 322,911lbs
Avg. Fuel Used: 161,456lbs/flt
Fuel Expense: $397,181
Avg. Fuel Expense: $198,590
Avg. Fuel Cost: $1.23/lbs
Total Gross Income: $510,547
Pilot Pay: $488
Total Expenses: $55,243
Total Revenue: $53,452
Average Revenue: $255,273.54